Terminal Aerodrome Forecast
Issued by NWS

Home | Current Version | Previous Version | Text Only | Print | Product List | Glossary On
Versions: 1 2 3 4 5 6 7 8 9 10 11 12 13 14 15 16 17 18 19 20 21 22 23 24 25 26 27 28
000
FTUS41 KOKX 212324
TAFTEB
TAF
KTEB 212324Z 2200/2224 18008KT P6SM SCT050 SCT250
     FM220200 20005KT P6SM SCT040 SCT250
     FM220800 21005KT 6SM BR SCT015 SCT250
     FM221400 22008KT P6SM FEW025 BKN250
     FM221700 22012G18KT P6SM SCT050 BKN250
     FM222200 22013G21KT P6SM SCT050 BKN250=

USA.gov is the U.S. government's official web portal to all federal, state and local government web resources and services.